createdAt,value
2019-04-13T00:02:07.427Z,21.10
2019-04-13T00:04:48.515Z,21.13
2019-04-13T00:07:20.655Z,21.27
2019-04-13T00:09:51.291Z,20.07
2019-04-13T00:12:30.147Z,21.00
2019-04-13T00:15:01.232Z,20.50
2019-04-13T00:17:32.329Z,21.30
2019-04-13T00:20:03.121Z,21.03
2019-04-13T00:22:34.091Z,21.25
2019-04-13T00:25:05.014Z,20.92
2019-04-13T00:27:35.799Z,21.43
2019-04-13T00:30:07.459Z,21.03
2019-04-13T00:32:38.137Z,20.80
2019-04-13T00:35:09.404Z,21.50
2019-04-13T00:37:40.717Z,23.57
2019-04-13T00:40:11.628Z,21.93
2019-04-13T00:42:42.962Z,22.13
2019-04-13T00:45:14.597Z,22.30
2019-04-13T00:47:45.604Z,22.77
2019-04-13T00:50:17.000Z,21.80
2019-04-13T00:52:49.188Z,21.55
2019-04-13T00:55:20.512Z,21.30
2019-04-13T00:57:54.122Z,21.03
2019-04-13T01:00:25.040Z,21.10
2019-04-13T01:02:56.218Z,21.43
2019-04-13T01:05:27.671Z,21.73
2019-04-13T01:07:58.572Z,21.25
2019-04-13T01:10:29.223Z,21.20
2019-04-13T01:13:00.149Z,20.97
2019-04-13T01:15:31.078Z,21.68
2019-04-13T01:18:02.233Z,22.13
2019-04-13T01:20:32.940Z,21.50
2019-04-13T01:23:04.346Z,22.50
2019-04-13T01:25:35.257Z,22.40
2019-04-13T01:28:06.146Z,22.77
2019-04-13T01:30:37.058Z,21.27
2019-04-13T01:33:07.932Z,21.85
2019-04-13T01:35:38.799Z,22.40
2019-04-13T01:38:09.587Z,21.97
2019-04-13T01:40:40.521Z,22.30
2019-04-13T01:43:12.194Z,22.02
2019-04-13T01:45:42.986Z,23.23
2019-04-13T01:48:14.177Z,22.37
2019-04-13T01:50:45.095Z,22.57
2019-04-13T01:53:16.371Z,21.70
2019-04-13T01:55:47.537Z,22.03
2019-04-13T01:58:19.234Z,23.35
2019-04-13T02:01:11.873Z,22.77
2019-04-13T02:03:48.016Z,22.63
2019-04-13T02:06:18.825Z,23.47
2019-04-13T02:09:09.101Z,22.37
2019-04-13T02:11:40.821Z,22.77
2019-04-13T02:14:12.237Z,22.10
2019-04-13T02:16:43.398Z,23.20
2019-04-13T02:19:14.291Z,23.70
2019-04-13T02:21:45.084Z,22.13
2019-04-13T02:24:15.862Z,22.43
2019-04-13T02:26:46.778Z,22.67
2019-04-13T02:29:18.074Z,23.83
2019-04-13T02:31:50.075Z,23.43
2019-04-13T02:34:21.231Z,23.02
2019-04-13T02:36:52.061Z,23.25
2019-04-13T02:39:26.387Z,23.20
2019-04-13T02:41:57.885Z,22.40
2019-04-13T02:44:29.087Z,22.43
2019-04-13T02:47:00.239Z,23.50
2019-04-13T02:49:30.995Z,22.97
2019-04-13T02:52:01.878Z,23.83
2019-04-13T02:54:32.783Z,23.97
2019-04-13T02:57:03.974Z,23.12
2019-04-13T02:59:35.022Z,23.57
2019-04-13T03:02:05.875Z,24.07
2019-04-13T03:04:37.883Z,23.27
2019-04-13T03:07:08.714Z,23.67
2019-04-13T03:09:39.633Z,23.83
2019-04-13T03:12:10.862Z,23.63
2019-04-13T03:14:42.111Z,23.30
2019-04-13T03:17:34.925Z,24.47
2019-04-13T03:20:12.277Z,23.10
2019-04-13T03:22:43.364Z,24.70
2019-04-13T03:25:14.181Z,23.32
2019-04-13T03:27:48.690Z,23.75
2019-04-13T03:30:26.541Z,23.97
2019-04-13T03:32:57.402Z,23.60
2019-04-13T03:35:28.503Z,23.05
2019-04-13T03:37:59.019Z,25.33
2019-04-13T03:40:29.860Z,24.07
2019-04-13T03:43:01.181Z,23.80
2019-04-13T03:45:34.125Z,23.57
2019-04-13T03:48:04.914Z,24.25
2019-04-13T03:50:36.191Z,23.37
2019-04-13T03:53:07.400Z,24.37
2019-04-13T03:55:39.199Z,23.43
2019-04-13T03:58:10.080Z,23.87
2019-04-13T04:00:41.761Z,24.43
2019-04-13T04:03:12.736Z,23.57
2019-04-13T04:05:43.647Z,24.37
2019-04-13T04:08:15.010Z,24.53
2019-04-13T04:10:46.593Z,24.33
2019-04-13T04:13:17.815Z,24.77
2019-04-13T04:15:49.461Z,23.83
2019-04-13T04:18:20.405Z,24.10
2019-04-13T04:20:51.874Z,24.03
2019-04-13T04:23:22.873Z,24.90
2019-04-13T04:25:54.043Z,27.62
2019-04-13T04:28:25.370Z,23.80
2019-04-13T04:30:56.286Z,24.37
2019-04-13T04:33:27.643Z,23.92
2019-04-13T04:35:58.758Z,24.33
2019-04-13T04:38:29.673Z,23.60
2019-04-13T04:41:00.725Z,26.17
2019-04-13T04:43:31.799Z,23.22
2019-04-13T04:46:02.792Z,30.48
2019-04-13T04:48:33.429Z,30.50
2019-04-13T04:51:11.063Z,31.17
2019-04-13T04:53:37.558Z,27.50
2019-04-13T04:56:08.281Z,25.57
2019-04-13T04:58:39.318Z,23.63
2019-04-13T05:01:11.901Z,24.23
2019-04-13T05:03:42.515Z,22.93
2019-04-13T05:06:13.574Z,23.97
2019-04-13T05:08:47.155Z,24.50
2019-04-13T05:11:19.453Z,24.00
2019-04-13T05:13:50.460Z,24.47
2019-04-13T05:16:21.543Z,23.97
2019-04-13T05:18:52.791Z,24.63
2019-04-13T05:21:23.637Z,23.87
2019-04-13T05:23:54.858Z,23.10
2019-04-13T05:26:25.999Z,24.63
2019-04-13T05:28:57.156Z,24.17
2019-04-13T05:31:33.448Z,24.17
2019-04-13T05:34:05.383Z,24.40
2019-04-13T05:36:47.557Z,23.97
2019-04-13T05:39:15.201Z,23.50
2019-04-13T05:41:46.968Z,23.43
2019-04-13T05:44:17.893Z,24.10
2019-04-13T05:46:49.742Z,25.40
2019-04-13T05:49:21.829Z,24.77
2019-04-13T05:51:52.815Z,24.20
2019-04-13T05:54:26.357Z,24.07
2019-04-13T05:56:57.375Z,24.37
2019-04-13T05:59:28.177Z,25.07
2019-04-13T06:01:59.042Z,24.17
2019-04-13T06:04:31.634Z,23.83
2019-04-13T06:07:02.553Z,24.30
2019-04-13T06:09:33.833Z,24.13
2019-04-13T06:12:05.255Z,24.43
2019-04-13T06:14:39.524Z,25.17
2019-04-13T06:17:09.972Z,25.05
2019-04-13T06:19:42.086Z,24.03
2019-04-13T06:22:13.643Z,25.17
2019-04-13T06:24:46.071Z,24.77
2019-04-13T06:27:17.827Z,23.50
2019-04-13T06:29:48.927Z,25.00
2019-04-13T06:32:36.716Z,24.73
2019-04-13T06:35:18.830Z,25.27
2019-04-13T06:37:50.260Z,23.83
2019-04-13T06:40:21.208Z,25.00
2019-04-13T06:42:54.825Z,25.00
2019-04-13T06:45:32.257Z,33.15
2019-04-13T06:48:03.051Z,24.77
2019-04-13T06:50:38.707Z,24.90
2019-04-13T06:53:09.815Z,24.30
2019-04-13T06:55:40.776Z,25.88
2019-04-13T06:58:13.287Z,24.80
2019-04-13T07:00:44.924Z,24.75
2019-04-13T07:03:17.311Z,24.55
2019-04-13T07:05:48.286Z,24.77
2019-04-13T07:08:41.225Z,24.73
2019-04-13T07:11:24.182Z,24.87
2019-04-13T07:14:00.969Z,25.17
2019-04-13T07:16:36.353Z,25.10
2019-04-13T07:19:07.405Z,25.17
2019-04-13T07:21:39.315Z,24.20
2019-04-13T07:24:10.271Z,24.77
2019-04-13T07:26:44.112Z,25.20
2019-04-13T07:29:15.235Z,24.80
2019-04-13T07:31:47.442Z,24.73
2019-04-13T07:34:21.943Z,24.63
2019-04-13T07:36:52.807Z,24.83
2019-04-13T07:39:24.141Z,25.63
2019-04-13T07:41:55.089Z,25.13
2019-04-13T07:44:31.540Z,24.43
2019-04-13T07:47:16.868Z,24.57
2019-04-13T07:50:05.508Z,25.10
2019-04-13T07:52:37.352Z,25.17
2019-04-13T07:55:09.064Z,24.75
2019-04-13T07:57:39.991Z,24.43
2019-04-13T08:00:11.525Z,24.60
2019-04-13T08:02:42.500Z,24.27
2019-04-13T08:05:14.413Z,24.00
2019-04-13T08:07:50.074Z,23.43
2019-04-13T08:10:18.212Z,24.17
2019-04-13T08:12:49.067Z,24.50
2019-04-13T08:15:20.300Z,25.10
2019-04-13T08:17:54.302Z,24.83
2019-04-13T08:20:30.519Z,25.57
2019-04-13T08:23:02.924Z,24.23
2019-04-13T08:25:41.651Z,24.30
2019-04-13T08:28:15.686Z,23.80
2019-04-13T08:30:49.432Z,24.53
2019-04-13T08:33:20.435Z,22.97
2019-04-13T08:35:51.575Z,22.93
2019-04-13T08:38:22.449Z,23.90
2019-04-13T08:40:53.951Z,23.10
2019-04-13T08:43:25.062Z,22.00
2019-04-13T08:45:57.219Z,22.73
2019-04-13T08:48:29.029Z,23.87
2019-04-13T08:51:00.307Z,26.00
2019-04-13T08:53:31.395Z,24.70
2019-04-13T08:56:03.604Z,22.50
2019-04-13T08:58:34.647Z,22.90
2019-04-13T09:01:05.803Z,22.20
2019-04-13T09:03:37.572Z,22.00
2019-04-13T09:06:08.907Z,21.30
2019-04-13T09:08:39.974Z,20.47
2019-04-13T09:11:11.935Z,20.13
2019-04-13T09:13:44.211Z,22.63
2019-04-13T09:16:15.309Z,22.20
2019-04-13T09:19:03.776Z,23.00
2019-04-13T09:21:36.330Z,21.67
2019-04-13T09:24:07.334Z,21.30
2019-04-13T09:26:39.883Z,22.23
2019-04-13T09:29:14.384Z,22.00
2019-04-13T09:31:46.874Z,21.70
2019-04-13T09:34:29.761Z,23.13
2019-04-13T09:36:53.823Z,23.70
2019-04-13T09:39:27.194Z,23.27
2019-04-13T09:41:59.960Z,24.10
2019-04-13T09:44:32.323Z,23.90
2019-04-13T09:47:18.008Z,23.57
2019-04-13T09:49:59.234Z,24.80
2019-04-13T09:52:31.264Z,25.08
2019-04-13T09:55:01.827Z,23.17
2019-04-13T09:57:33.486Z,22.63
2019-04-13T10:00:05.643Z,22.60
2019-04-13T10:02:36.958Z,22.30
2019-04-13T10:05:08.455Z,22.93
2019-04-13T10:07:41.385Z,22.43
2019-04-13T10:10:13.252Z,22.00
2019-04-13T10:13:04.489Z,23.30
2019-04-13T10:16:06.790Z,22.00
2019-04-13T10:18:58.026Z,22.58
2019-04-13T10:21:29.650Z,22.30
2019-04-13T10:24:00.948Z,23.63
2019-04-13T10:26:31.867Z,22.80
2019-04-13T10:29:03.582Z,22.02
2019-04-13T10:31:35.173Z,22.43
2019-04-13T10:34:06.541Z,22.30
2019-04-13T10:36:38.784Z,21.40
2019-04-13T10:39:12.718Z,21.85
2019-04-13T10:41:43.534Z,22.20
2019-04-13T10:44:14.548Z,21.43
2019-04-13T10:47:04.538Z,23.25
2019-04-13T10:49:48.056Z,22.17
2019-04-13T10:52:21.643Z,22.50
2019-04-13T10:54:52.562Z,22.73
2019-04-13T10:57:24.512Z,21.90
2019-04-13T10:59:55.223Z,22.70
2019-04-13T11:02:26.433Z,24.67
2019-04-13T11:04:58.046Z,22.73
2019-04-13T11:07:29.348Z,23.40
2019-04-13T11:10:01.501Z,22.00
2019-04-13T11:12:33.281Z,22.53
2019-04-13T11:15:04.836Z,23.40
2019-04-13T11:17:35.743Z,22.93
2019-04-13T11:20:07.330Z,22.27
2019-04-13T11:22:38.712Z,22.63
2019-04-13T11:25:09.844Z,24.20
2019-04-13T11:27:40.937Z,22.40
2019-04-13T11:30:12.651Z,23.73
2019-04-13T11:32:43.530Z,23.05
2019-04-13T11:35:14.639Z,22.73
2019-04-13T11:37:47.849Z,22.97
2019-04-13T11:40:18.925Z,23.18
2019-04-13T11:43:24.930Z,23.47
2019-04-13T11:46:08.749Z,24.12
2019-04-13T11:49:10.760Z,24.30
2019-04-13T11:51:51.632Z,24.27
2019-04-13T11:54:30.773Z,23.40
2019-04-13T11:57:02.322Z,23.03
2019-04-13T11:59:33.390Z,23.53
2019-04-13T12:02:17.920Z,23.42
2019-04-13T12:05:01.756Z,22.47
2019-04-13T12:07:38.195Z,23.20
2019-04-13T12:10:27.896Z,23.02
2019-04-13T12:13:18.611Z,22.97
2019-04-13T12:16:03.264Z,22.43
2019-04-13T12:18:55.856Z,23.20
2019-04-13T12:21:45.758Z,22.63
2019-04-13T12:24:24.141Z,22.77
2019-04-13T12:26:55.162Z,25.90
2019-04-13T12:29:26.137Z,38.78
2019-04-13T12:32:05.528Z,38.20
2019-04-13T12:34:43.630Z,25.03
2019-04-13T12:37:15.275Z,24.00
2019-04-13T12:39:48.068Z,22.03
2019-04-13T12:42:19.114Z,22.57
2019-04-13T12:44:50.428Z,21.73
2019-04-13T12:47:22.921Z,24.10
2019-04-13T12:49:57.950Z,24.37
2019-04-13T12:52:30.330Z,24.50
2019-04-13T12:55:05.552Z,23.27
2019-04-13T12:57:35.116Z,23.30
2019-04-13T13:00:08.961Z,24.18
2019-04-13T13:02:46.411Z,23.50
2019-04-13T13:05:29.782Z,24.80
2019-04-13T13:08:08.164Z,24.13
2019-04-13T13:10:37.859Z,24.00
2019-04-13T13:13:12.297Z,24.57
2019-04-13T13:15:43.004Z,23.80
2019-04-13T13:18:17.535Z,24.07
2019-04-13T13:20:48.455Z,24.03
2019-04-13T13:23:19.887Z,22.90
2019-04-13T13:25:51.841Z,22.60
2019-04-13T13:28:22.731Z,23.93
2019-04-13T13:30:54.840Z,23.70
2019-04-13T13:33:25.621Z,23.10
2019-04-13T13:35:56.484Z,24.43
2019-04-13T13:38:27.099Z,22.43
2019-04-13T13:40:58.523Z,23.25
2019-04-13T13:43:29.719Z,23.03
2019-04-13T13:46:00.605Z,22.58
2019-04-13T13:48:31.496Z,22.58
2019-04-13T13:51:03.171Z,23.27
2019-04-13T13:53:34.459Z,22.98
2019-04-13T13:56:05.754Z,23.00
2019-04-13T13:58:42.196Z,29.70
2019-04-13T14:01:26.037Z,22.57
2019-04-13T14:03:56.845Z,23.03
2019-04-13T14:06:27.940Z,21.23
2019-04-13T14:08:58.859Z,20.63
2019-04-13T14:11:29.791Z,21.30
2019-04-13T14:14:00.724Z,20.83
2019-04-13T14:16:31.447Z,21.00
2019-04-13T14:19:02.347Z,20.50
2019-04-13T14:21:33.546Z,20.67
2019-04-13T14:24:04.882Z,20.83
2019-04-13T14:26:35.628Z,20.40
2019-04-13T14:29:10.490Z,22.10
2019-04-13T14:31:39.575Z,20.82
2019-04-13T14:34:10.864Z,22.07
2019-04-13T14:36:41.601Z,21.70
2019-04-13T14:39:12.467Z,21.10
2019-04-13T14:41:43.887Z,21.70
2019-04-13T14:44:19.161Z,22.77
2019-04-13T14:46:48.098Z,20.83
2019-04-13T14:49:19.134Z,21.25
2019-04-13T14:52:08.918Z,21.87
2019-04-13T14:54:39.859Z,21.90
2019-04-13T14:57:13.328Z,21.73
2019-04-13T14:59:49.327Z,21.17
2019-04-13T15:02:18.085Z,23.00
2019-04-13T15:04:49.561Z,21.77
2019-04-13T15:07:20.395Z,21.60
2019-04-13T15:09:52.726Z,21.27
2019-04-13T15:12:23.654Z,21.53
2019-04-13T15:14:54.844Z,22.17
2019-04-13T15:17:25.639Z,21.67
2019-04-13T15:20:08.826Z,22.53
2019-04-13T15:22:35.390Z,23.13
2019-04-13T15:25:06.882Z,21.97
2019-04-13T15:27:39.110Z,22.67
2019-04-13T15:30:12.782Z,21.95
2019-04-13T15:32:42.958Z,25.87
2019-04-13T15:35:16.925Z,21.83
2019-04-13T15:37:48.535Z,21.67
2019-04-13T15:40:22.436Z,22.58
2019-04-13T15:42:59.727Z,22.37
2019-04-13T15:45:26.340Z,22.80
2019-04-13T15:47:57.516Z,23.47
2019-04-13T15:50:28.457Z,22.77
2019-04-13T15:52:59.659Z,25.37
2019-04-13T15:55:31.594Z,22.93
2019-04-13T15:58:02.630Z,23.43
2019-04-13T16:00:33.866Z,22.73
2019-04-13T16:03:15.392Z,23.00
2019-04-13T16:05:47.862Z,22.10
2019-04-13T16:08:20.443Z,22.50
2019-04-13T16:11:12.718Z,21.90
2019-04-13T16:13:43.720Z,21.93
2019-04-13T16:16:18.283Z,21.70
2019-04-13T16:18:49.830Z,22.97
2019-04-13T16:21:21.536Z,23.10
2019-04-13T16:23:52.553Z,21.93
2019-04-13T16:26:23.628Z,22.35
2019-04-13T16:29:03.742Z,21.90
2019-04-13T16:32:01.402Z,23.53
2019-04-13T16:34:59.416Z,22.55
2019-04-13T16:37:34.484Z,23.27
2019-04-13T16:40:08.607Z,22.27
2019-04-13T16:42:41.069Z,22.77
2019-04-13T16:45:25.554Z,22.10
2019-04-13T16:48:28.232Z,22.02
2019-04-13T16:51:21.506Z,22.43
2019-04-13T16:54:17.070Z,22.90
2019-04-13T16:57:06.537Z,22.30
2019-04-13T16:59:57.326Z,21.40
2019-04-13T17:02:58.744Z,22.53
2019-04-13T17:05:31.816Z,35.50
2019-04-13T17:08:03.465Z,22.23
2019-04-13T17:10:35.725Z,23.37
2019-04-13T17:13:07.650Z,22.30
2019-04-13T17:15:39.764Z,26.10
2019-04-13T17:18:20.564Z,23.20
2019-04-13T17:21:12.801Z,23.10
2019-04-13T17:24:04.910Z,24.00
2019-04-13T17:27:13.187Z,23.42
2019-04-13T17:29:50.238Z,23.50
2019-04-13T17:32:33.812Z,23.67
2019-04-13T17:35:22.085Z,22.33
2019-04-13T17:37:56.899Z,22.70
2019-04-13T17:40:32.211Z,23.43
2019-04-13T17:43:28.802Z,24.10
2019-04-13T17:46:30.965Z,22.93
2019-04-13T17:49:09.152Z,25.52
2019-04-13T17:51:58.998Z,25.57
2019-04-13T17:54:41.729Z,25.57
2019-04-13T17:57:22.141Z,25.50
2019-04-13T18:00:20.164Z,25.77
2019-04-13T18:03:13.523Z,24.87
2019-04-13T18:06:19.293Z,26.40
2019-04-13T18:09:01.897Z,24.53
2019-04-13T18:11:51.366Z,25.53
2019-04-13T18:14:40.433Z,25.07
2019-04-13T18:17:24.546Z,26.77
2019-04-13T18:19:55.321Z,26.00
2019-04-13T18:22:26.599Z,27.73
2019-04-13T18:24:57.598Z,23.52
2019-04-13T18:27:30.907Z,27.48
2019-04-13T18:30:10.124Z,23.43
2019-04-13T18:32:33.936Z,25.07
2019-04-13T18:35:06.179Z,26.63
2019-04-13T18:37:38.635Z,23.97
2019-04-13T18:40:09.954Z,23.90
2019-04-13T18:42:55.283Z,23.32
2019-04-13T18:45:13.868Z,22.83
2019-04-13T18:47:45.107Z,24.53
2019-04-13T18:50:16.576Z,23.07
2019-04-13T18:52:48.607Z,23.45
2019-04-13T18:55:20.153Z,24.15
2019-04-13T18:57:52.673Z,21.73
2019-04-13T19:00:25.654Z,23.00
2019-04-13T19:03:00.671Z,22.73
2019-04-13T19:05:32.050Z,22.45
2019-04-13T19:08:02.969Z,25.97
2019-04-13T19:10:33.962Z,28.27
2019-04-13T19:13:07.690Z,23.13
2019-04-13T19:15:40.474Z,25.02
2019-04-13T19:18:11.487Z,21.90
2019-04-13T19:20:42.344Z,22.43
2019-04-13T19:23:13.545Z,21.20
2019-04-13T19:25:45.089Z,20.80
2019-04-13T19:28:16.362Z,20.07
2019-04-13T19:30:49.951Z,20.07
2019-04-13T19:33:20.749Z,21.05
2019-04-13T19:35:51.841Z,22.13
2019-04-13T19:38:22.626Z,21.33
2019-04-13T19:40:53.610Z,20.80
2019-04-13T19:43:24.691Z,20.17
2019-04-13T19:45:56.929Z,20.63
2019-04-13T19:48:32.738Z,22.27
2019-04-13T19:51:04.418Z,22.02
2019-04-13T19:54:04.699Z,21.70
2019-04-13T19:56:35.894Z,24.43
2019-04-13T19:59:07.334Z,21.40
2019-04-13T20:01:38.774Z,20.80
2019-04-13T20:04:09.667Z,21.97
2019-04-13T20:06:41.098Z,20.30
2019-04-13T20:09:15.385Z,20.33
2019-04-13T20:11:46.218Z,21.83
2019-04-13T20:14:19.461Z,20.88
2019-04-13T20:16:51.082Z,21.30
2019-04-13T20:19:22.226Z,20.70
2019-04-13T20:21:52.955Z,19.77
2019-04-13T20:24:25.057Z,19.97
2019-04-13T20:26:55.950Z,21.30
2019-04-13T20:29:27.848Z,20.77
2019-04-13T20:31:59.289Z,20.40
2019-04-13T20:34:31.614Z,22.20
2019-04-13T20:37:03.492Z,20.67
2019-04-13T20:39:37.276Z,21.30
2019-04-13T20:42:14.179Z,21.13
2019-04-13T20:44:40.870Z,22.40
2019-04-13T20:47:17.618Z,21.17
2019-04-13T20:49:49.827Z,20.80
2019-04-13T20:52:21.271Z,21.27
2019-04-13T20:54:53.692Z,22.03
2019-04-13T20:57:25.942Z,22.63
2019-04-13T20:59:56.979Z,21.60
2019-04-13T21:02:28.778Z,20.60
2019-04-13T21:05:01.273Z,21.50
2019-04-13T21:07:32.049Z,21.60
2019-04-13T21:10:05.193Z,22.17
2019-04-13T21:12:37.067Z,21.27
2019-04-13T21:15:08.093Z,21.50
2019-04-13T21:17:39.682Z,22.27
2019-04-13T21:20:12.210Z,21.73
2019-04-13T21:22:44.240Z,21.23
2019-04-13T21:25:16.191Z,20.77
2019-04-13T21:27:47.171Z,20.50
2019-04-13T21:30:20.948Z,21.33
2019-04-13T21:32:53.010Z,20.73
2019-04-13T21:35:27.428Z,20.37
2019-04-13T21:37:57.981Z,22.77
2019-04-13T21:40:29.700Z,22.33
2019-04-13T21:43:00.348Z,21.13
2019-04-13T21:45:32.389Z,20.93
2019-04-13T21:48:10.877Z,20.88
2019-04-13T21:51:01.625Z,20.80
2019-04-13T21:53:42.239Z,21.50
2019-04-13T21:56:14.291Z,20.90
2019-04-13T21:58:47.058Z,21.13
2019-04-13T22:01:36.401Z,21.30
2019-04-13T22:04:08.771Z,21.90
2019-04-13T22:06:40.939Z,21.60
2019-04-13T22:09:13.187Z,21.60
2019-04-13T22:11:45.051Z,21.47
2019-04-13T22:14:31.449Z,21.40
2019-04-13T22:16:49.863Z,21.23
2019-04-13T22:19:20.733Z,21.70
2019-04-13T22:21:52.445Z,22.20
2019-04-13T22:24:24.455Z,21.82
2019-04-13T22:27:00.846Z,21.37
2019-04-13T22:29:41.988Z,21.97
2019-04-13T22:32:34.591Z,22.07
2019-04-13T22:35:25.947Z,23.60
2019-04-13T22:37:58.168Z,22.02
2019-04-13T22:40:30.038Z,22.30
2019-04-13T22:43:04.535Z,23.90
2019-04-13T22:45:36.191Z,23.27
2019-04-13T22:48:22.483Z,23.52
2019-04-13T22:51:01.154Z,23.92
2019-04-13T22:54:10.022Z,24.33
2019-04-13T22:56:46.674Z,25.90
2019-04-13T22:59:17.368Z,25.53
2019-04-13T23:01:57.746Z,25.50
2019-04-13T23:04:29.765Z,25.93
2019-04-13T23:07:02.283Z,25.27
2019-04-13T23:09:34.629Z,26.67
2019-04-13T23:12:05.508Z,27.40
2019-04-13T23:14:37.295Z,26.93
2019-04-13T23:17:09.473Z,27.43
2019-04-13T23:19:41.413Z,24.63
2019-04-13T23:22:12.405Z,24.17
2019-04-13T23:24:43.445Z,24.72
2019-04-13T23:27:15.607Z,25.62
2019-04-13T23:29:48.273Z,24.63
2019-04-13T23:32:22.669Z,24.10
2019-04-13T23:34:55.134Z,25.60
2019-04-13T23:37:27.915Z,24.35
2019-04-13T23:40:00.473Z,23.32
2019-04-13T23:42:31.547Z,24.17
2019-04-13T23:45:10.754Z,22.87
2019-04-13T23:47:36.227Z,23.25
2019-04-13T23:50:08.849Z,23.17
2019-04-13T23:52:41.485Z,22.67
2019-04-13T23:55:13.982Z,22.30
2019-04-13T23:58:12.543Z,22.60
